Time;durP1;ratioP1;P1;durP2;ratioP2;P2;SDS_P1;SDS_P2;PMS_P1;PMS_P2;Temp;Humidity;BMP_temperature;BMP_pressure;BME280_temperature;BME280_humidity;BME280_pressure;Samples;Min_cycle;Max_cycle;Signal;HPM_P1;HPM_P2
2022/11/24 00:00:05;;;;;;;;;;;;;;;17.34;55.57;99783.88;4863841;29;1092;-47
2022/11/24 00:02:31;;;;;;;;;;;;;;;16.56;56.97;99784.28;4863297;29;1972;-46
2022/11/24 00:04:56;;;;;;;;;;;;;;;16.31;56.76;99786.28;4863780;29;1172;-44
2022/11/24 00:07:21;;;;;;;;;;;;;;;16.12;56.66;99789.03;4867714;29;1085;-48
2022/11/24 00:09:47;;;;;;;;;;;;;;;16.85;56.59;99786.03;4872836;29;1096;-47
2022/11/24 00:12:12;;;;;;;;;;;;;;;17.29;55.56;99782.00;4863481;29;1129;-47
2022/11/24 00:14:38;;;;;;;;;;;;;;;16.56;56.57;99781.53;4863506;29;1085;-44
2022/11/24 00:17:03;;;;;;;;;;;;;;;16.30;56.70;99773.69;4863805;29;1776;-48
2022/11/24 00:19:29;;;;;;;;;;;;;;;16.13;56.46;99787.91;4863807;29;1192;-46
2022/11/24 00:21:54;;;;;;;;;;;;;;;16.33;57.45;99777.78;4863664;29;1907;-47
2022/11/24 00:24:19;;;;;;;;;;;;;;;17.45;55.33;99783.38;4862873;29;1167;-46
2022/11/24 00:26:45;;;;;;;;;;;;;;;16.61;56.87;99784.22;4863541;29;1196;-48
2022/11/24 00:29:10;;;;;;;;;;;;;;;16.28;56.90;99767.66;4863416;29;1112;-44
2022/11/24 00:31:36;;;;;;;;;;;;;;;16.10;56.75;99771.22;4863165;29;1104;-46
2022/11/24 00:34:03;;;;;;;;;;;;;;;16.70;56.82;99781.59;4862695;29;1215;-48
2022/11/24 00:36:30;;;;;;;;;;;;;;;17.19;55.70;99782.19;4863249;29;1203;-47
2022/11/24 00:38:56;;;;;;;;;;;;;;;16.49;56.98;99783.84;4862956;29;1167;-46
2022/11/24 00:41:22;;;;;;;;;;;;;;;16.20;56.96;99788.38;4863341;29;1903;-47
2022/11/24 00:43:47;;;;;;;;;;;;;;;16.08;56.79;99780.56;4862939;29;1129;-48
2022/11/24 00:46:13;;;;;;;;;;;;;;;17.47;55.41;99785.00;4863240;29;1873;-49
2022/11/24 00:48:38;;;;;;;;;;;;;;;16.74;56.55;99783.44;4863217;29;1108;-46
2022/11/24 00:51:05;;;;;;;;;;;;;;;16.39;56.67;99782.88;4863565;29;1175;-44
2022/11/24 00:53:30;;;;;;;;;;;;;;;16.16;56.85;99784.59;4862992;29;1124;-47
2022/11/24 00:55:56;;;;;;;;;;;;;;;16.05;56.81;99781.16;4863532;29;1163;-45
2022/11/24 00:58:21;;;;;;;;;;;;;;;17.44;55.52;99786.41;4863242;29;1232;-47
2022/11/24 01:00:47;;;;;;;;;;;;;;;16.68;56.65;99786.59;4863027;29;1906;-48
2022/11/24 01:03:13;;;;;;;;;;;;;;;16.34;57.05;99779.38;4862487;29;1100;-48
2022/11/24 01:05:38;;;;;;;;;;;;;;;17.56;54.87;99785.94;4863089;29;1191;-44
2022/11/24 01:08:04;;;;;;;;;;;;;;;16.72;56.50;99796.66;4872255;29;1093;-47
2022/11/24 01:10:29;;;;;;;;;;;;;;;16.36;56.61;99799.94;4866511;29;1136;-45
2022/11/24 01:12:54;;;;;;;;;;;;;;;16.18;56.71;99792.50;4862568;29;1128;-45
2022/11/24 01:15:20;;;;;;;;;;;;;;;16.08;56.23;99796.19;4862493;29;1164;-48
2022/11/24 01:17:45;;;;;;;;;;;;;;;16.90;56.64;99796.97;4862186;29;2284;-48
2022/11/24 01:20:11;;;;;;;;;;;;;;;17.24;55.72;99795.84;4863071;29;1176;-45
2022/11/24 01:22:37;;;;;;;;;;;;;;;16.54;56.68;99783.78;4862892;29;1910;-43
2022/11/24 01:25:06;;;;;;;;;;;;;;;16.29;56.62;99777.53;4862658;29;1214;-44
2022/11/24 01:27:31;;;;;;;;;;;;;;;16.19;56.98;99774.94;4862911;29;1178;-47
2022/11/24 01:29:57;;;;;;;;;;;;;;;17.54;55.17;99777.16;4863346;29;1474;-48
2022/11/24 01:32:22;;;;;;;;;;;;;;;16.70;56.67;99770.63;4863152;29;1081;-46
2022/11/24 01:34:48;;;;;;;;;;;;;;;16.33;56.95;99767.63;4862967;29;1105;-45
2022/11/24 01:37:13;;;;;;;;;;;;;;;16.11;56.84;99767.38;4862670;29;1207;-47
2022/11/24 01:39:39;;;;;;;;;;;;;;;16.16;57.03;99762.63;4863303;29;1223;-44
2022/11/24 01:42:04;;;;;;;;;;;;;;;17.60;55.10;99760.28;4863332;29;1914;-44
2022/11/24 01:44:30;;;;;;;;;;;;;;;16.85;56.52;99766.81;4862855;29;1319;-46
2022/11/24 01:46:56;;;;;;;;;;;;;;;16.41;56.99;99766.94;4862859;29;1203;-43
2022/11/24 01:49:42;;;;;;;;;;;;;;;16.17;56.61;99763.44;4846606;29;1105;-45
2022/11/24 01:52:10;;;;;;;;;;;;;;;16.13;56.81;99773.38;4846729;29;1231;-45
2022/11/24 01:54:37;;;;;;;;;;;;;;;17.62;55.04;99765.47;4846175;29;1129;-44
2022/11/24 01:57:06;;;;;;;;;;;;;;;16.80;56.38;99767.72;4863697;29;1211;-45
2022/11/24 01:59:32;;;;;;;;;;;;;;;16.38;56.93;99763.97;4866352;29;1231;-45
2022/11/24 02:01:57;;;;;;;;;;;;;;;16.18;56.91;99754.13;4849728;29;1994;-46
2022/11/24 02:04:24;;;;;;;;;;;;;;;16.03;56.44;99753.22;4866077;29;1167;-45
2022/11/24 02:06:49;;;;;;;;;;;;;;;16.60;56.78;99755.94;4866086;29;1108;-43
2022/11/24 02:09:19;;;;;;;;;;;;;;;17.43;54.96;99755.38;4852716;29;1132;-46
2022/11/24 02:11:45;;;;;;;;;;;;;;;16.57;56.77;99759.28;4866453;29;965;-45
2022/11/24 02:14:11;;;;;;;;;;;;;;;16.29;56.77;99765.75;4848446;29;1263;-45
2022/11/24 02:16:37;;;;;;;;;;;;;;;16.05;56.85;99761.97;4865582;29;1620;-47
2022/11/24 02:19:07;;;;;;;;;;;;;;;16.79;56.92;99768.00;4866260;29;1223;-44
2022/11/24 02:21:32;;;;;;;;;;;;;;;17.03;56.02;99752.25;4849367;29;1970;-46
2022/11/24 02:24:01;;;;;;;;;;;;;;;16.42;56.79;99751.28;4865406;29;1125;-46
2022/11/24 02:26:35;;;;;;;;;;;;;;;16.16;56.70;99742.59;4865626;29;893;-46
2022/11/24 02:29:01;;;;;;;;;;;;;;;16.46;57.40;99759.75;4865647;29;1171;-45
2022/11/24 02:31:26;;;;;;;;;;;;;;;17.45;54.92;99752.31;4849555;29;1227;-47
2022/11/24 02:33:52;;;;;;;;;;;;;;;16.58;56.59;99747.19;4865899;29;1144;-47
2022/11/24 02:36:17;;;;;;;;;;;;;;;16.25;56.71;99743.59;4865512;29;1014;-47
2022/11/24 02:38:43;;;;;;;;;;;;;;;16.20;56.90;99747.22;4865317;29;898;-49
2022/11/24 02:41:10;;;;;;;;;;;;;;;17.54;54.83;99750.47;4865488;29;1911;-46
2022/11/24 02:43:36;;;;;;;;;;;;;;;16.67;56.69;99758.31;4865455;29;1148;-47
2022/11/24 02:46:02;;;;;;;;;;;;;;;16.35;56.90;99754.41;4848891;29;1148;-45
2022/11/24 02:48:27;;;;;;;;;;;;;;;16.15;56.48;99760.19;4865224;29;1116;-48
2022/11/24 02:50:53;;;;;;;;;;;;;;;16.00;56.27;99758.47;4865139;29;911;-45
2022/11/24 02:53:18;;;;;;;;;;;;;;;16.93;56.17;99747.75;4865216;29;1137;-47
2022/11/24 02:55:43;;;;;;;;;;;;;;;17.18;55.70;99753.09;4853165;29;1219;-46
2022/11/24 02:58:09;;;;;;;;;;;;;;;16.49;56.66;99759.97;4868698;29;1108;-44
2022/11/24 03:00:34;;;;;;;;;;;;;;;16.23;56.86;99759.53;4865403;29;1935;-43
2022/11/24 03:03:00;;;;;;;;;;;;;;;16.09;56.42;99759.44;4868480;29;1140;-45
2022/11/24 03:05:25;;;;;;;;;;;;;;;16.13;57.00;99759.66;4864795;29;1235;-47
2022/11/24 03:07:50;;;;;;;;;;;;;;;17.57;55.16;99765.56;4872034;29;1132;-44
2022/11/24 03:10:16;;;;;;;;;;;;;;;16.73;56.51;99767.28;4869366;29;1171;-48
2022/11/24 03:12:41;;;;;;;;;;;;;;;16.33;56.89;99756.63;4848522;29;1271;-47
2022/11/24 03:15:08;;;;;;;;;;;;;;;16.09;56.79;99767.69;4864677;29;875;-46
2022/11/24 03:17:33;;;;;;;;;;;;;;;16.18;57.35;99759.59;4865025;29;1164;-44
2022/11/24 03:20:01;;;;;;;;;;;;;;;17.52;55.16;99769.22;4864504;29;1160;-42
2022/11/24 03:22:26;;;;;;;;;;;;;;;16.60;56.86;99760.63;4864807;29;1985;-48
2022/11/24 03:24:52;;;;;;;;;;;;;;;16.27;56.80;99765.22;4864779;29;1175;-45
2022/11/24 03:27:17;;;;;;;;;;;;;;;16.10;56.76;99768.47;4864367;29;1203;-45
2022/11/24 03:29:43;;;;;;;;;;;;;;;17.33;55.71;99766.53;4864486;29;1319;-42
2022/11/24 03:32:08;;;;;;;;;;;;;;;16.90;56.25;99759.34;4864885;29;1132;-45
2022/11/24 03:34:33;;;;;;;;;;;;;;;16.43;56.95;99767.44;4864527;29;1179;-47
2022/11/24 03:36:59;;;;;;;;;;;;;;;16.20;56.63;99774.66;4864459;29;1156;-46
2022/11/24 03:39:24;;;;;;;;;;;;;;;16.67;56.74;99771.22;4864498;29;1133;-43
2022/11/24 03:41:53;;;;;;;;;;;;;;;17.39;55.01;99776.34;4864671;29;1906;-48
2022/11/24 03:44:18;;;;;;;;;;;;;;;16.57;56.50;99783.97;4864001;29;1172;-47
2022/11/24 03:46:43;;;;;;;;;;;;;;;16.29;56.63;99791.25;4864391;29;1215;-46
2022/11/24 03:49:09;;;;;;;;;;;;;;;16.53;57.22;99809.59;4864428;29;1113;-46
2022/11/24 03:51:34;;;;;;;;;;;;;;;17.47;54.92;99816.03;4864298;29;1096;-42
2022/11/24 03:54:00;;;;;;;;;;;;;;;16.61;56.67;99819.91;4864770;29;1164;-45
2022/11/24 03:56:25;;;;;;;;;;;;;;;16.35;56.56;99820.25;4864298;29;1135;-43
2022/11/24 03:58:51;;;;;;;;;;;;;;;16.15;56.72;99818.59;4863814;29;1184;-48
2022/11/24 04:01:17;;;;;;;;;;;;;;;16.02;56.35;99820.13;4864255;29;1988;-48
2022/11/24 04:03:42;;;;;;;;;;;;;;;16.71;56.91;99810.69;4863970;29;1033;-41
2022/11/24 04:06:08;;;;;;;;;;;;;;;16.98;56.24;99818.25;4864314;29;1203;-43
2022/11/24 04:08:33;;;;;;;;;;;;;;;16.42;57.00;99823.47;4863031;29;1212;-43
2022/11/24 04:10:59;;;;;;;;;;;;;;;16.15;57.02;99820.53;4863776;29;986;-46
2022/11/24 04:13:24;;;;;;;;;;;;;;;17.38;55.41;99823.38;4863764;29;1140;-45
2022/11/24 04:15:50;;;;;;;;;;;;;;;16.86;56.18;99832.41;4864212;29;1136;-48
2022/11/24 04:18:15;;;;;;;;;;;;;;;16.40;56.98;99833.09;4863970;29;1207;-47
2022/11/24 04:20:41;;;;;;;;;;;;;;;16.99;56.62;99832.81;4862915;29;1974;-45
2022/11/24 04:23:07;;;;;;;;;;;;;;;17.09;55.65;99822.44;4863384;29;1373;-47
2022/11/24 04:25:32;;;;;;;;;;;;;;;16.52;56.54;99827.16;4863902;29;1160;-46
2022/11/24 04:27:58;;;;;;;;;;;;;;;16.30;56.75;99824.97;4863620;29;997;-47
2022/11/24 04:30:23;;;;;;;;;;;;;;;16.08;56.42;99829.91;4863327;29;1179;-47
2022/11/24 04:32:49;;;;;;;;;;;;;;;17.07;56.06;99832.94;4864231;29;938;-49
2022/11/24 04:35:14;;;;;;;;;;;;;;;16.92;56.18;99836.75;4863433;29;1215;-45
2022/11/24 04:37:40;;;;;;;;;;;;;;;16.40;56.84;99839.38;4863450;29;1219;-45
2022/11/24 04:40:06;;;;;;;;;;;;;;;16.20;56.88;99839.66;4863300;29;1116;-48
2022/11/24 04:42:31;;;;;;;;;;;;;;;16.12;56.89;99843.03;4862161;29;1902;-48
2022/11/24 04:44:57;;;;;;;;;;;;;;;17.55;54.73;99837.34;4863084;29;1485;-49
2022/11/24 04:47:22;;;;;;;;;;;;;;;16.85;56.12;99844.50;4863690;29;1081;-45
2022/11/24 04:49:48;;;;;;;;;;;;;;;16.45;56.76;99845.91;4861898;29;1212;-47
2022/11/24 04:52:14;;;;;;;;;;;;;;;16.20;56.59;99850.63;4864459;29;1338;-49
2022/11/24 04:54:39;;;;;;;;;;;;;;;16.04;56.65;99853.56;4862979;29;1207;-47
2022/11/24 04:57:05;;;;;;;;;;;;;;;17.26;55.60;99859.53;4862889;29;1208;-48
2022/11/24 04:59:30;;;;;;;;;;;;;;;16.79;56.33;99866.84;4862736;29;1208;-48
2022/11/24 05:01:56;;;;;;;;;;;;;;;16.33;56.92;99862.81;4861560;29;1976;-50
2022/11/24 05:04:21;;;;;;;;;;;;;;;16.15;56.62;99867.16;4862965;29;891;-47
2022/11/24 05:06:46;;;;;;;;;;;;;;;16.01;56.71;99861.56;4863264;29;1156;-49
2022/11/24 05:09:12;;;;;;;;;;;;;;;17.41;55.33;99862.03;4863064;29;1219;-45
2022/11/24 05:11:38;;;;;;;;;;;;;;;16.71;56.71;99877.38;4862865;29;1469;-46
2022/11/24 05:14:03;;;;;;;;;;;;;;;16.30;56.82;99877.09;4862694;29;1097;-45
2022/11/24 05:16:29;;;;;;;;;;;;;;;16.12;56.66;99886.91;4870273;29;1066;-50
2022/11/24 05:18:54;;;;;;;;;;;;;;;15.97;56.56;99888.72;4863369;29;1199;-50
2022/11/24 05:21:19;;;;;;;;;;;;;;;16.92;56.45;99888.91;4862647;29;1911;-50
2022/11/24 05:23:45;;;;;;;;;;;;;;;16.83;56.32;99870.63;4860743;29;2444;-48
2022/11/24 05:26:10;;;;;;;;;;;;;;;16.32;56.86;99889.44;4863228;29;1907;-51
2022/11/24 05:28:36;;;;;;;;;;;;;;;16.08;57.16;99898.47;4862366;29;1948;-46
2022/11/24 05:31:01;;;;;;;;;;;;;;;16.50;57.13;99887.81;4862546;29;1830;-50
2022/11/24 05:33:27;;;;;;;;;;;;;;;17.60;54.63;99899.66;4865021;29;2219;-47
2022/11/24 05:35:53;;;;;;;;;;;;;;;16.58;56.79;99895.41;4865977;29;2146;-48
2022/11/24 05:38:18;;;;;;;;;;;;;;;16.24;56.90;99892.81;4866096;29;2106;-48
2022/11/24 05:40:44;;;;;;;;;;;;;;;16.08;56.87;99893.00;4871694;29;1967;-47
2022/11/24 05:43:12;;;;;;;;;;;;;;;16.29;57.11;99895.50;4852032;29;1238;-46
2022/11/24 05:45:38;;;;;;;;;;;;;;;17.45;55.02;99892.50;4866173;29;1127;-45
2022/11/24 05:48:05;;;;;;;;;;;;;;;16.53;56.90;99900.94;4866537;29;1149;-45
2022/11/24 05:50:30;;;;;;;;;;;;;;;16.21;57.22;99907.94;4865902;29;1139;-48
2022/11/24 05:52:56;;;;;;;;;;;;;;;16.05;56.82;99910.03;4868633;29;981;-47
2022/11/24 05:55:21;;;;;;;;;;;;;;;15.96;57.10;99902.75;4866217;29;1172;-46
2022/11/24 05:57:46;;;;;;;;;;;;;;;17.42;55.44;99906.84;4865894;29;1180;-46
2022/11/24 06:00:12;;;;;;;;;;;;;;;16.65;56.70;99911.53;4865662;29;1391;-46
2022/11/24 06:02:38;;;;;;;;;;;;;;;16.27;57.05;99925.16;4865796;29;1914;-47
2022/11/24 06:05:03;;;;;;;;;;;;;;;16.07;56.73;99929.78;4869639;29;930;-44
2022/11/24 06:07:29;;;;;;;;;;;;;;;16.79;56.94;99935.47;4875099;29;1347;-48
2022/11/24 06:09:54;;;;;;;;;;;;;;;16.98;56.03;99941.03;4866690;29;2701;-45
2022/11/24 06:12:19;;;;;;;;;;;;;;;16.38;56.82;99936.81;4865480;29;1105;-43
2022/11/24 06:14:45;;;;;;;;;;;;;;;16.11;57.20;99940.16;4864844;29;1160;-45
2022/11/24 06:17:10;;;;;;;;;;;;;;;17.22;55.84;99940.94;4874732;29;1001;-45
2022/11/24 06:19:36;;;;;;;;;;;;;;;16.84;56.18;99941.72;4849467;29;1116;-45
2022/11/24 06:22:01;;;;;;;;;;;;;;;16.36;57.15;99948.09;4865084;29;1957;-48
2022/11/24 06:24:26;;;;;;;;;;;;;;;16.11;57.04;99940.97;4864882;29;1105;-47
2022/11/24 06:26:52;;;;;;;;;;;;;;;15.97;56.82;99937.28;4865526;29;1227;-44
2022/11/24 06:29:17;;;;;;;;;;;;;;;17.14;55.93;99950.69;4872816;29;872;-45
2022/11/24 06:31:43;;;;;;;;;;;;;;;16.26;58.30;99940.00;4865712;29;1135;-47
2022/11/24 06:34:10;;;;;;;;;;;;;;;17.36;55.34;99952.81;4865116;29;1109;-46
2022/11/24 06:36:36;;;;;;;;;;;;;;;16.56;54.81;99958.03;4864593;29;1112;-47
2022/11/24 06:39:01;;;;;;;;;;;;;;;16.32;53.08;99965.44;4866717;29;2692;-44
2022/11/24 06:41:27;;;;;;;;;;;;;;;16.25;52.05;99957.53;4871049;29;1899;-44
2022/11/24 06:43:52;;;;;;;;;;;;;;;16.49;53.33;99968.50;4864761;29;1159;-46
2022/11/24 06:46:18;;;;;;;;;;;;;;;16.23;51.63;99954.28;4865396;29;1157;-47
2022/11/24 06:48:43;;;;;;;;;;;;;;;17.44;54.11;99960.38;4864861;29;1132;-41
2022/11/24 06:51:09;;;;;;;;;;;;;;;16.51;53.43;99957.25;4864947;29;1101;-43
2022/11/24 06:53:38;;;;;;;;;;;;;;;16.31;52.40;99955.56;4854446;29;1092;-43
2022/11/24 06:56:05;;;;;;;;;;;;;;;16.96;53.13;99957.81;4864905;29;1116;-43
2022/11/24 06:58:30;;;;;;;;;;;;;;;16.44;51.92;99957.63;4865540;29;1215;-44
2022/11/24 07:00:55;;;;;;;;;;;;;;;16.24;50.54;99955.91;4865050;29;1974;-42
2022/11/24 07:03:21;;;;;;;;;;;;;;;17.41;52.45;99955.47;4864839;29;1100;-43
2022/11/24 07:05:47;;;;;;;;;;;;;;;16.65;51.89;99965.59;4866985;29;1139;-45
2022/11/24 07:08:12;;;;;;;;;;;;;;;16.39;50.62;99958.47;4865637;29;1888;-43
2022/11/24 07:10:37;;;;;;;;;;;;;;;16.21;49.65;99951.00;4867076;29;1144;-47
2022/11/24 07:13:05;;;;;;;;;;;;;;;17.12;51.80;99954.84;4864789;29;1121;-45
2022/11/24 07:15:31;;;;;;;;;;;;;;;16.65;51.80;99947.19;4865144;29;1069;-44
2022/11/24 07:17:56;;;;;;;;;;;;;;;17.24;52.44;99941.47;4865216;29;1191;-44
2022/11/24 07:20:22;;;;;;;;;;;;;;;17.64;52.54;99941.09;4864584;29;1093;-43
2022/11/24 07:22:47;;;;;;;;;;;;;;;16.82;51.94;99935.72;4863534;29;1907;-46
2022/11/24 07:25:13;;;;;;;;;;;;;;;16.64;50.40;99947.50;4847289;29;1275;-49
2022/11/24 07:27:39;;;;;;;;;;;;;;;16.45;49.32;99944.69;4865744;29;1129;-47
2022/11/24 07:30:04;;;;;;;;;;;;;;;17.44;52.00;99937.56;4869834;29;1100;-45
2022/11/24 07:32:30;;;;;;;;;;;;;;;16.69;51.71;99931.78;4863944;29;1247;-48
2022/11/24 07:34:55;;;;;;;;;;;;;;;16.42;50.66;99935.97;4863737;29;1290;-49
2022/11/24 07:37:21;;;;;;;;;;;;;;;16.52;50.32;99936.94;4863481;29;1223;-47
2022/11/24 07:39:46;;;;;;;;;;;;;;;16.84;51.14;99930.72;4869724;29;2686;-48
2022/11/24 07:42:12;;;;;;;;;;;;;;;16.39;50.51;99949.44;4867693;29;1919;-47
2022/11/24 07:44:37;;;;;;;;;;;;;;;17.62;51.21;99941.41;4862892;29;1224;-44
2022/11/24 07:47:03;;;;;;;;;;;;;;;16.74;51.42;99948.16;4863394;29;1314;-45
2022/11/24 07:49:28;;;;;;;;;;;;;;;17.01;51.09;99957.75;4863557;29;1361;-47
2022/11/24 07:51:54;;;;;;;;;;;;;;;17.41;51.76;99962.91;4863775;29;1302;-44
2022/11/24 07:54:19;;;;;;;;;;;;;;;16.84;50.60;99962.88;4862773;29;1239;-45
2022/11/24 07:56:48;;;;;;;;;;;;;;;16.52;49.43;99956.97;4863122;29;1219;-45
2022/11/24 07:59:13;;;;;;;;;;;;;;;17.09;50.77;99954.31;4863203;29;1243;-48
2022/11/24 08:01:39;;;;;;;;;;;;;;;16.64;50.68;99956.53;4863028;29;1982;-47
2022/11/24 08:04:05;;;;;;;;;;;;;;;17.17;50.72;99957.53;4862257;29;1243;-48
2022/11/24 08:06:30;;;;;;;;;;;;;;;17.60;51.25;99960.94;4863642;29;1475;-46
2022/11/24 08:08:56;;;;;;;;;;;;;;;16.87;50.87;99956.78;4863510;29;1848;-46
2022/11/24 08:11:21;;;;;;;;;;;;;;;16.71;49.36;99964.44;4863259;29;1385;-43
2022/11/24 08:13:47;;;;;;;;;;;;;;;16.51;48.84;99954.50;4862672;29;1329;-47
2022/11/24 08:16:13;;;;;;;;;;;;;;;16.76;49.30;99961.63;4866302;29;1127;-47
2022/11/24 08:18:39;;;;;;;;;;;;;;;17.11;51.13;99962.28;4866786;29;1116;-46
2022/11/24 08:21:05;;;;;;;;;;;;;;;16.62;50.21;99967.00;4861294;29;1994;-47
2022/11/24 08:23:30;;;;;;;;;;;;;;;16.52;48.93;99956.13;4858476;29;1050;-51
2022/11/24 08:25:56;;;;;;;;;;;;;;;16.52;49.53;99950.66;4863257;29;1180;-52
2022/11/24 08:28:22;;;;;;;;;;;;;;;16.81;50.26;99947.00;4865372;29;1245;-48
2022/11/24 08:30:47;;;;;;;;;;;;;;;16.83;50.63;99951.09;4873914;29;1176;-46
2022/11/24 08:33:13;;;;;;;;;;;;;;;18.21;50.66;99957.44;4863101;29;1160;-49
2022/11/24 08:35:38;;;;;;;;;;;;;;;17.09;51.60;99953.50;4863582;29;1356;-47
2022/11/24 08:38:04;;;;;;;;;;;;;;;16.79;49.95;99960.19;4863055;29;2375;-49
2022/11/24 08:40:29;;;;;;;;;;;;;;;16.57;48.97;99956.88;4866244;29;1135;-48
2022/11/24 08:42:58;;;;;;;;;;;;;;;17.15;50.83;99949.53;4870154;29;1985;-46
2022/11/24 08:45:23;;;;;;;;;;;;;;;17.34;51.35;99952.28;4863005;29;1132;-51
2022/11/24 08:47:52;;;;;;;;;;;;;;;18.69;50.59;99954.28;4863437;29;1105;-50
2022/11/24 08:50:18;;;;;;;;;;;;;;;17.56;51.85;99945.38;4862118;29;1341;-53
2022/11/24 08:52:43;;;;;;;;;;;;;;;17.06;50.68;99954.91;4850883;29;1046;-50
2022/11/24 08:55:10;;;;;;;;;;;;;;;16.81;49.62;99950.56;4864786;29;1084;-51
2022/11/24 08:57:35;;;;;;;;;;;;;;;16.77;48.31;99955.00;4863065;29;1109;-46
2022/11/24 09:00:01;;;;;;;;;;;;;;;16.59;47.83;99954.69;4862659;29;1163;-52
2022/11/24 09:02:26;;;;;;;;;;;;;;;17.84;50.80;99964.66;4862815;29;1907;-51
2022/11/24 09:04:52;;;;;;;;;;;;;;;16.97;50.77;99964.09;4866569;29;1128;-53
2022/11/24 09:07:17;;;;;;;;;;;;;;;16.67;49.66;99975.16;4866077;29;1077;-51
2022/11/24 09:09:43;;;;;;;;;;;;;;;16.61;48.28;99968.13;4870083;29;2544;-50
2022/11/24 09:12:08;;;;;;;;;;;;;;;16.47;47.89;99957.03;4867174;29;1089;-53
2022/11/24 09:14:33;;;;;;;;;;;;;;;16.52;47.92;99956.97;4867105;29;1168;-48
2022/11/24 09:16:59;;;;;;;;;;;;;;;17.27;49.88;99954.59;4866795;29;1132;-47
2022/11/24 09:19:24;;;;;;;;;;;;;;;16.60;49.89;99959.03;4865601;29;1258;-49
2022/11/24 09:21:50;;;;;;;;;;;;;;;16.53;48.71;99953.09;4866560;29;2031;-48
2022/11/24 09:24:15;;;;;;;;;;;;;;;16.36;47.84;99961.81;4865997;29;1165;-46
2022/11/24 09:26:41;;;;;;;;;;;;;;;17.35;49.62;99953.09;4866586;29;1372;-49
2022/11/24 09:29:06;;;;;;;;;;;;;;;16.96;50.01;99949.56;4867467;29;1368;-53
2022/11/24 09:31:33;;;;;;;;;;;;;;;16.70;48.98;99952.59;4866063;29;1314;-52
2022/11/24 09:33:58;;;;;;;;;;;;;;;16.46;48.17;99957.31;4865315;29;1356;-51
2022/11/24 09:36:24;;;;;;;;;;;;;;;17.33;49.79;99964.41;4864962;29;1291;-48
2022/11/24 09:38:49;;;;;;;;;;;;;;;16.70;49.51;99963.59;4866180;29;1801;-49
2022/11/24 09:41:21;;;;;;;;;;;;;;;16.50;48.63;99956.44;4867292;29;1975;-49
2022/11/24 09:43:50;;;;;;;;;;;;;;;17.43;49.85;99947.75;4865820;29;1298;-46
2022/11/24 09:46:39;;;;;;;;;;;;;;;16.74;50.06;99958.34;4849068;29;1306;-47
2022/11/24 09:49:05;;;;;;;;;;;;;;;17.31;50.16;99949.34;4859716;29;1275;-52
2022/11/24 09:51:30;;;;;;;;;;;;;;;17.15;50.59;99951.50;4864930;29;1302;-45
2022/11/24 09:53:59;;;;;;;;;;;;;;;16.74;49.91;99950.91;4848163;29;1388;-54
2022/11/24 09:56:28;;;;;;;;;;;;;;;16.66;49.15;99951.59;4866010;29;1088;-52
2022/11/24 09:58:56;;;;;;;;;;;;;;;17.24;50.26;99955.22;4865273;29;1393;-47
2022/11/24 10:01:29;;;;;;;;;;;;;;;16.77;49.53;99950.34;4865007;29;1895;-47
2022/11/24 10:03:54;;;;;;;;;;;;;;;16.59;48.80;99943.72;4865268;29;1216;-49
2022/11/24 10:06:24;;;;;;;;;;;;;;;17.05;49.97;99952.47;4864702;29;1212;-49
2022/11/24 10:08:59;;;;;;;;;;;;;;;16.60;49.40;99944.50;4871389;29;2330;-47
2022/11/24 10:11:33;;;;;;;;;;;;;;;16.54;47.97;99949.25;4848768;29;1164;-51
2022/11/24 10:14:02;;;;;;;;;;;;;;;17.09;49.59;99948.81;4861769;29;1213;-46
2022/11/24 10:16:40;;;;;;;;;;;;;;;16.60;49.27;99939.81;4865280;29;1151;-45
2022/11/24 10:19:24;;;;;;;;;;;;;;;16.48;48.45;99941.38;4874341;29;886;-51
2022/11/24 10:22:05;;;;;;;;;;;;;;;17.45;49.22;99939.22;4865467;29;1989;-47
2022/11/24 10:24:51;;;;;;;;;;;;;;;16.70;49.40;99941.63;4848341;29;1108;-48
2022/11/24 10:27:17;;;;;;;;;;;;;;;17.38;49.67;99945.09;4833555;29;1038;-49
2022/11/24 10:29:43;;;;;;;;;;;;;;;16.87;49.92;99932.06;4871830;29;1133;-49
2022/11/24 10:32:17;;;;;;;;;;;;;;;16.62;48.92;99939.56;4866283;29;1104;-49
2022/11/24 10:34:43;;;;;;;;;;;;;;;17.09;49.67;99948.81;4864907;29;1132;-48
2022/11/24 10:37:12;;;;;;;;;;;;;;;16.73;49.10;99951.22;4865100;29;1089;-47
2022/11/24 10:39:59;;;;;;;;;;;;;;;18.00;49.71;99960.56;4877629;29;1832;-50
2022/11/24 10:42:31;;;;;;;;;;;;;;;17.12;50.64;99955.66;4857542;29;1899;-51
2022/11/24 10:45:00;;;;;;;;;;;;;;;16.83;49.25;99962.06;4864874;29;1153;-53
2022/11/24 10:47:25;;;;;;;;;;;;;;;17.02;49.87;99959.34;4865471;29;1172;-53
2022/11/24 10:49:59;;;;;;;;;;;;;;;17.36;50.51;99957.50;4865104;29;1470;-52
2022/11/24 10:52:24;;;;;;;;;;;;;;;16.79;49.74;99961.03;4836303;29;1094;-52
2022/11/24 10:54:56;;;;;;;;;;;;;;;16.69;48.59;99972.97;4866016;29;939;-48
2022/11/24 10:57:28;;;;;;;;;;;;;;;17.29;49.88;99966.09;4864691;29;1092;-55
2022/11/24 10:59:54;;;;;;;;;;;;;;;16.72;49.46;99966.06;4864731;29;1176;-50
2022/11/24 11:02:26;;;;;;;;;;;;;;;16.60;48.54;99960.97;4864791;29;1978;-52
2022/11/24 11:04:51;;;;;;;;;;;;;;;16.47;47.83;99964.44;4863802;29;1176;-50
2022/11/24 11:07:20;;;;;;;;;;;;;;;17.18;49.52;99959.97;4877213;29;1180;-50
2022/11/24 11:09:46;;;;;;;;;;;;;;;16.61;49.23;99957.13;4864321;29;2808;-50
2022/11/24 11:12:21;;;;;;;;;;;;;;;17.19;49.60;99958.03;4865183;29;1152;-56
2022/11/24 11:14:47;;;;;;;;;;;;;;;17.01;50.29;99963.22;4864246;29;1081;-57
2022/11/24 11:17:31;;;;;;;;;;;;;;;16.68;49.17;99970.50;4864254;29;1188;-53
2022/11/24 11:20:00;;;;;;;;;;;;;;;16.45;48.47;99967.47;4873886;29;1115;-52
2022/11/24 11:22:26;;;;;;;;;;;;;;;17.10;49.25;99961.44;4863763;29;1915;-54
2022/11/24 11:25:10;;;;;;;;;;;;;;;16.56;48.96;99968.16;4863138;29;1178;-53
2022/11/24 11:27:35;;;;;;;;;;;;;;;17.04;49.63;99962.63;4864243;29;1116;-54
2022/11/24 11:30:16;;;;;;;;;;;;;;;17.23;49.62;99962.63;4867145;29;1144;-52
2022/11/24 11:32:49;;;;;;;;;;;;;;;16.66;49.31;99969.97;4863702;29;1141;-52
2022/11/24 11:35:15;;;;;;;;;;;;;;;17.72;49.59;99971.47;4862978;29;1080;-51
2022/11/24 11:37:40;;;;;;;;;;;;;;;16.86;49.98;99971.66;4864279;29;1113;-57
2022/11/24 11:40:07;;;;;;;;;;;;;;;16.67;48.98;99980.66;4855832;29;2477;-56
2022/11/24 11:42:33;;;;;;;;;;;;;;;16.50;47.92;99974.84;4854714;29;1899;-50
2022/11/24 11:44:58;;;;;;;;;;;;;;;17.36;49.34;99984.97;4863599;29;1220;-46
2022/11/24 11:47:25;;;;;;;;;;;;;;;16.81;49.33;99985.44;4864390;29;1219;-49
2022/11/24 11:49:51;;;;;;;;;;;;;;;16.57;48.66;99984.34;4846917;29;1184;-43
2022/11/24 11:52:35;;;;;;;;;;;;;;;17.79;49.58;99976.59;4863489;29;1215;-46
2022/11/24 11:55:10;;;;;;;;;;;;;;;16.81;50.06;99990.94;4870138;29;1278;-53
2022/11/24 11:57:41;;;;;;;;;;;;;;;16.55;48.87;99988.47;4864623;29;1143;-48
2022/11/24 12:00:10;;;;;;;;;;;;;;;16.49;48.01;99995.97;4864189;29;982;-49
2022/11/24 12:02:38;;;;;;;;;;;;;;;16.47;47.24;99983.66;4847645;29;1976;-49
2022/11/24 12:05:10;;;;;;;;;;;;;;;17.19;48.57;99996.47;4863355;29;1239;-49
2022/11/24 12:07:53;;;;;;;;;;;;;;;16.95;49.98;100000.09;4868914;29;946;-48
2022/11/24 12:10:34;;;;;;;;;;;;;;;16.57;48.82;100002.75;4866996;29;2563;-45
2022/11/24 12:13:06;;;;;;;;;;;;;;;17.22;49.48;99996.72;4846613;29;1240;-45
2022/11/24 12:15:45;;;;;;;;;;;;;;;16.61;49.34;99998.31;4862987;29;1219;-50
2022/11/24 12:18:29;;;;;;;;;;;;;;;17.69;49.53;99988.56;4850014;29;1228;-48
2022/11/24 12:21:13;;;;;;;;;;;;;;;17.11;49.86;99997.97;4852477;29;1977;-48
2022/11/24 12:23:41;;;;;;;;;;;;;;;17.54;50.36;100005.31;4862653;29;1045;-47
2022/11/24 12:26:15;;;;;;;;;;;;;;;17.74;50.42;99996.75;4862943;29;1176;-45
2022/11/24 12:28:40;;;;;;;;;;;;;;;17.01;49.84;99996.19;4846566;29;1143;-46
2022/11/24 12:31:21;;;;;;;;;;;;;;;16.71;49.14;100009.16;4866279;29;854;-46
2022/11/24 12:33:55;;;;;;;;;;;;;;;16.68;47.79;100011.69;4862207;29;1183;-45
2022/11/24 12:36:24;;;;;;;;;;;;;;;17.44;49.76;100007.09;4846051;29;1088;-46
2022/11/24 12:38:54;;;;;;;;;;;;;;;16.84;49.49;100015.03;4863207;29;2531;-48
2022/11/24 12:41:22;;;;;;;;;;;;;;;17.70;49.80;100011.41;4845986;29;1902;-48
2022/11/24 12:43:51;;;;;;;;;;;;;;;17.32;50.18;99998.50;4863793;29;862;-45
2022/11/24 12:46:20;;;;;;;;;;;;;;;16.77;49.36;100013.50;4853849;29;1163;-48
2022/11/24 12:48:55;;;;;;;;;;;;;;;17.74;50.11;100013.25;4862394;29;1112;-50
2022/11/24 12:51:26;;;;;;;;;;;;;;;16.94;49.89;100014.94;4862781;29;1156;-48
2022/11/24 12:53:51;;;;;;;;;;;;;;;16.82;48.64;100022.78;4846495;29;1155;-47
2022/11/24 12:56:18;;;;;;;;;;;;;;;17.43;49.79;100030.22;4854849;29;1033;-48